DW3253 Weather Reports


Display with metric or nautical units.
time (UTC)temp
F
wind
direction
speed
MPH
gust
MPH
rain 1hr
in
rain 24hr
in
rain mn
in
humidity
%
barometer
mb
20200406162136 75 71 10.0 16.0 0.00 0.08 0.00 69 1020.4
20200406161139 74 169 12.0 18.0 0.00 0.08 0.00 70 1020.4
20200406160138 74 134 12.0 20.0 0.00 0.08 0.00 73 1020.4
20200406155138 73 130 9.0 16.0 0.00 0.08 0.00 73 1020.7
20200406154137 72 83 14.0 21.0 0.00 0.08 0.00 76 1020.8
20200406153137 72 67 10.0 17.0 0.00 0.08 0.00 77 1020.9
20200406152137 72 67 11.0 18.0 0.00 0.08 0.00 78 1020.9
20200406151139 71 70 10.0 17.0 0.00 0.08 0.00 80 1020.9
20200406150137 71 76 9.0 17.0 0.00 0.08 0.00 80 1020.9
20200406145137 71 51 6.0 13.0 0.00 0.08 0.00 83 1020.8
20200406144137 70 46 8.0 12.0 0.00 0.08 0.00 84 1020.4
20200406143136 69 70 11.0 15.0 0.00 0.08 0.00 86 1020.4
20200406142137 69 96 11.0 16.0 0.00 0.08 0.00 86 1020.2
20200406141137 69 78 8.0 17.0 0.00 0.08 0.00 86 1020.2
20200406140137 68 111 11.0 17.0 0.00 0.08 0.00 87 1020.2
20200406135138 68 62 10.0 16.0 0.00 0.08 0.00 87 1020.2
20200406134137 67 88 8.0 15.0 0.00 0.08 0.00 89 1020.2
20200406133137 67 84 9.0 17.0 0.00 0.08 0.00 89 1020.2
20200406132137 67 71 7.0 13.0 0.00 0.08 0.00 90 1020.1
20200406131137 66 136 8.0 11.0 0.00 0.08 0.00 91 1020.1
20200406130137 66 83 8.0 12.0 0.00 0.08 0.00 92 1020.2
20200406125136 66 120 9.0 13.0 0.00 0.08 0.00 92 1020.0
20200406124138 65 96 9.0 12.0 0.00 0.08 0.00 93 1019.8
20200406123137 65 86 8.0 12.0 0.00 0.08 0.00 94 1019.7
20200406122137 65 61 7.0 11.0 0.00 0.08 0.00 95 1019.5
20200406121138 65 58 7.0 11.0 0.00 0.08 0.00 94 1019.3
20200406120138 64 59 8.0 10.0 0.00 0.08 0.00 94 1019.5
20200406115137 64 46 7.0 12.0 0.00 0.08 0.00 95 1019.4
20200406114137 64 71 7.0 10.0 0.00 0.08 0.00 95 1019.2
20200406113138 64 102 7.0 10.0 0.00 0.08 0.00 95 1018.8
20200406112136 64 73 5.0 10.0 0.00 0.08 0.00 95 1018.8
20200406111138 64 57 7.0 10.0 0.00 0.08 0.00 95 1018.7
20200406110137 64 86 7.0 10.0 0.00 0.08 0.00 95 1018.6
20200406105138 64 83 7.0 11.0 0.00 0.08 0.00 95 1018.4
20200406104138 64 57 6.0 11.0 0.00 0.08 0.00 95 1018.3
20200406103137 64 84 5.0 10.0 0.00 0.08 0.00 95 1018.3
20200406102137 64 76 7.0 10.0 0.00 0.08 0.00 95 1018.3
20200406101137 64 71 7.0 11.0 0.00 0.08 0.00 95 1018.1
20200406100137 64 72 6.0 10.0 0.00 0.08 0.00 95 1018.0
20200406095136 64 65 7.0 13.0 0.00 0.08 0.00 95 1018.0
20200406094137 64 59 6.0 10.0 0.00 0.08 0.00 95 1018.1
20200406093135 64 70 6.0 11.0 0.00 0.08 0.00 95 1018.0
20200406092136 64 81 6.0 9.0 0.00 0.08 0.00 95 1018.0
20200406091134 64 90 5.0 9.0 0.00 0.08 0.00 95 1017.9
20200406090135 64 82 6.0 10.0 0.00 0.08 0.00 95 1017.9
20200406085131 64 80 6.0 11.0 0.00 0.08 0.00 94 1018.0
20200406084132 64 72 5.0 9.0 0.00 0.08 0.00 94 1017.9
20200406083130 64 76 5.0 9.0 0.00 0.08 0.00 94 1017.9
20200406082130 64 66 6.0 11.0 0.00 0.08 0.00 94 1017.8
20200406081130 64 77 6.0 10.0 0.00 0.08 0.00 94 1018.0
20200406080131 64 76 5.0 9.0 0.00 0.08 0.00 94 1018.1
20200406075128 64 70 6.0 9.0 0.00 0.08 0.00 94 1018.1
20200406074128 64 94 6.0 9.0 0.00 0.08 0.00 94 1018.0
20200406073128 64 57 6.0 12.0 0.00 0.08 0.00 94 1018.0
20200406072128 64 80 6.0 12.0 0.00 0.08 0.00 94 1018.1
20200406071127 64 120 6.0 10.0 0.00 0.08 0.00 94 1018.0
20200406070127 64 86 4.0 8.0 0.00 0.08 0.00 94 1018.1
20200406065126 64 92 5.0 9.0 0.00 0.08 0.00 94 1018.2
20200406064127 64 65 6.0 11.0 0.00 0.08 0.00 94 1018.3
20200406063127 64 78 8.0 12.0 0.00 0.08 0.00 94 1018.4
20200406062125 64 76 10.0 13.0 0.00 0.08 0.00 93 1018.4
20200406061123 64 51 8.0 13.0 0.00 0.08 0.00 93 1018.6
20200406060124 64 69 8.0 12.0 0.00 0.08 0.00 93 1018.6
20200406055125 64 80 9.0 13.0 0.00 0.08 0.00 93 1018.7
20200406054125 64 95 9.0 13.0 0.00 0.08 0.00 93 1018.7
20200406053124 64 86 10.0 14.0 0.00 0.08 0.00 93 1018.8
20200406052122 64 76 10.0 15.0 0.00 0.08 0.00 93 1018.9
20200406051122 64 83 11.0 15.0 0.00 0.08 0.00 93 1019.1
20200406050122 64 99 10.0 16.0 0.00 0.08 0.00 93 1019.1
20200406045123 64 82 10.0 14.0 0.00 0.08 0.00 93 1019.1
20200406044119 64 81 7.0 12.0 0.00 0.08 0.00 93 1019.1
20200406043121 64 49 8.0 11.0 0.00 0.08 0.00 93 1019.1
20200406042119 64 116 9.0 13.0 0.00 0.08 0.00 93 1019.1
20200406041117 64 74 9.0 14.0 0.00 0.08 0.00 93 1019.1
20200406040117 64 79 10.0 14.0 0.00 0.08 0.00 93 1019.1
20200406035117 64 74 8.0 13.0 0.00 0.08 0.08 93 1019.2
20200406034117 64 86 8.0 13.0 0.00 0.08 0.08 94 1019.3
20200406033115 64 98 8.0 12.0 0.00 0.08 0.08 94 1019.3
20200406032115 64 76 8.0 14.0 0.00 0.08 0.08 94 1019.3
20200406031116 64 87 9.0 14.0 0.00 0.08 0.08 94 1019.2
20200406030115 64 98 7.0 11.0 0.00 0.08 0.08 95 1019.3
20200406025115 64 107 10.0 16.0 0.00 0.08 0.08 95 1019.1
20200406024116 64 120 9.0 15.0 0.00 0.08 0.08 95 1019.2
20200406023115 64 120 10.0 17.0 0.00 0.08 0.08 95 1018.9
20200406022114 64 74 9.0 14.0 0.00 0.08 0.08 96 1018.8
20200406021115 63 84 8.0 15.0 0.00 0.08 0.08 96 1018.7
20200406020114 63 113 9.0 14.0 0.00 0.08 0.08 96 1018.6
20200406015112 63 114 9.0 14.0 0.00 0.08 0.08 96 1018.6
20200406014112 63 111 9.0 15.0 0.00 0.08 0.08 96 1018.6
20200406013115 63 139 8.0 13.0 0.00 0.08 0.08 96 1018.4
20200406012113 63 92 10.0 14.0 0.00 0.08 0.08 96 1018.4
20200406011112 62 76 9.0 13.0 0.00 0.08 0.08 96 1018.5
20200406010113 62 56 7.0 11.0 0.00 0.08 0.08 96 1018.5
20200406005114 62 67 6.0 13.0 0.01 0.08 0.08 96 1018.4
20200406004112 62 83 9.0 15.0 0.01 0.08 0.08 96 1018.2
20200406003113 62 91 8.0 12.0 0.01 0.08 0.08 96 1018.1
20200406002112 62 73 8.0 11.0 0.02 0.08 0.08 96 1018.1
20200406001112 62 76 9.0 13.0 0.02 0.08 0.08 95 1017.9
20200406000112 62 93 9.0 12.0 0.02 0.08 0.08 95 1018.0
20200405235114 62 71 9.0 13.0 0.01 0.07 0.07 95 1018.1
20200405234113 62 82 9.0 14.0 0.01 0.07 0.07 95 1018.0
20200405233114 62 84 10.0 17.0 0.02 0.07 0.07 95 1017.9
20200405232113 62 65 10.0 14.0 0.01 0.06 0.06 95 1017.8
20200405231113 62 60 9.0 14.0 0.02 0.06 0.06 95 1017.8
20200405230114 61 84 8.0 14.0 0.02 0.06 0.06 94 1017.8
20200405225113 61 130 7.0 12.0 0.02 0.06 0.06 94 1017.7
20200405224112 61 49 7.0 12.0 0.02 0.06 0.06 94 1017.7
20200405223112 61 85 7.0 10.0 0.01 0.05 0.05 94 1017.7
20200405222113 60 53 6.0 10.0 0.01 0.05 0.05 93 1017.7
20200405221112 60 70 8.0 12.0 0.00 0.04 0.04 93 1017.6
20200405220112 60 63 10.0 16.0 0.00 0.04 0.04 92 1017.7
20200405215112 60 57 9.0 15.0 0.00 0.04 0.04 91 1017.7
20200405214113 60 37 10.0 14.0 0.00 0.04 0.04 90 1017.8
20200405213111 60 44 11.0 20.0 0.00 0.04 0.04 89 1017.8
20200405212112 60 85 12.0 19.0 0.00 0.04 0.04 87 1017.6
20200405211111 61 74 15.0 23.0 0.00 0.04 0.04 86 1017.7
20200405210108 61 17 12.0 19.0 0.00 0.04 0.04 84 1017.8
20200405205108 62 66 10.0 17.0 0.00 0.04 0.04 84 1017.6
20200405204108 62 44 12.0 24.0 0.00 0.04 0.04 84 1017.5
20200405203109 62 72 14.0 20.0 0.00 0.04 0.04 85 1017.5
20200405202108 63 67 14.0 23.0 0.00 0.04 0.04 82 1017.5
20200405201108 64 90 14.0 22.0 0.00 0.04 0.04 81 1017.4
20200405200108 65 30 13.0 21.0 0.00 0.04 0.04 76 1017.4
20200405195110 66 87 9.0 17.0 0.00 0.04 0.04 70 1017.4
20200405194109 66 83 10.0 16.0 0.00 0.04 0.04 70 1017.3
20200405193107 66 40 11.0 19.0 0.00 0.04 0.04 70 1017.2
20200405192106 65 56 11.0 19.0 0.00 0.04 0.04 73 1017.4
20200405191105 65 31 15.0 24.0 0.00 0.04 0.04 75 1017.6
20200405190107 65 45 13.0 21.0 0.00 0.04 0.04 76 1017.7
20200405185106 66 29 11.0 21.0 0.00 0.04 0.04 73 1017.9
20200405184105 67 37 11.0 18.0 0.00 0.04 0.04 64 1017.9
20200405183106 67 44 13.0 21.0 0.00 0.04 0.04 67 1017.8
20200405182107 66 53 12.0 19.0 0.01 0.04 0.04 69 1017.9
20200405181107 66 61 11.0 15.0 0.01 0.04 0.04 81 1017.8
20200405180106 66 74 10.0 15.0 0.03 0.04 0.04 82 1018.1
20200405175106 65 84 6.0 12.0 0.04 0.04 0.04 83 1018.1
20200405174107 66 117 3.0 7.0 0.04 0.04 0.04 86 1018.5
20200405173108 65 110 4.0 8.0 0.04 0.04 0.04 84 1018.5
20200405172106 66 80 2.0 4.0 0.03 0.03 0.03 82 1018.6
20200405171107 67 174 1.0 2.0 0.03 0.03 0.03 79 1018.8
20200405170107 67 155 2.0 6.0 0.01 0.01 0.01 78 1018.9
20200405165103 67 76 5.0 10.0 0.00 0.00 0.00 76 1018.7
20200405164103 68 40 6.0 12.0 0.00 0.00 0.00 75 1018.7
20200405163103 68 57 6.0 12.0 0.00 0.00 0.00 72 1018.6